createdAt,value
2022-12-25T00:01:08.598Z,89.88
2022-12-25T00:03:36.235Z,89.97
2022-12-25T00:06:03.663Z,89.90
2022-12-25T00:08:30.133Z,90.07
2022-12-25T00:10:58.210Z,89.62
2022-12-25T00:13:24.865Z,89.91
2022-12-25T00:15:51.316Z,89.99
2022-12-25T00:18:17.738Z,89.91
2022-12-25T00:20:44.279Z,89.78
2022-12-25T00:23:10.702Z,89.74
2022-12-25T00:25:40.412Z,89.99
2022-12-25T00:28:06.835Z,90.12
2022-12-25T00:30:33.306Z,90.05
2022-12-25T00:32:59.716Z,90.14
2022-12-25T00:35:26.092Z,89.84
2022-12-25T00:37:52.479Z,89.64
2022-12-25T00:40:18.909Z,89.72
2022-12-25T00:42:45.301Z,90.11
2022-12-25T00:45:11.760Z,90.16
2022-12-25T00:47:38.216Z,90.51
2022-12-25T00:50:05.363Z,90.04
2022-12-25T00:52:32.388Z,89.63
2022-12-25T00:54:58.738Z,90.45
2022-12-25T00:57:25.117Z,90.38
2022-12-25T00:59:51.574Z,90.46
2022-12-25T01:02:24.110Z,89.99
2022-12-25T01:04:52.561Z,90.08
2022-12-25T01:07:20.681Z,89.67
2022-12-25T01:10:06.651Z,89.80
2022-12-25T01:12:34.939Z,90.06
2022-12-25T01:15:01.526Z,90.28
2022-12-25T01:17:27.891Z,90.39
2022-12-25T01:19:54.267Z,90.00
2022-12-25T01:22:20.652Z,90.60
2022-12-25T01:24:47.105Z,90.43
2022-12-25T01:27:13.812Z,90.55
2022-12-25T01:29:40.226Z,90.38
2022-12-25T01:32:06.934Z,90.62
2022-12-25T01:34:33.819Z,90.33
2022-12-25T01:37:00.413Z,90.33
2022-12-25T01:39:27.014Z,90.23
2022-12-25T01:41:53.477Z,90.53
2022-12-25T01:44:19.891Z,90.27
2022-12-25T01:46:46.327Z,90.88
2022-12-25T01:49:16.541Z,90.40
2022-12-25T01:51:48.074Z,90.54
2022-12-25T01:54:30.648Z,90.25
2022-12-25T01:57:00.999Z,90.77
2022-12-25T01:59:28.394Z,91.15
2022-12-25T02:01:55.957Z,90.83
2022-12-25T02:04:38.646Z,90.85
2022-12-25T02:07:13.085Z,90.46
2022-12-25T02:09:39.951Z,90.51
2022-12-25T02:12:08.980Z,90.94
2022-12-25T02:14:37.375Z,90.85
2022-12-25T02:17:36.276Z,90.95
2022-12-25T02:20:20.947Z,90.55
2022-12-25T02:23:05.122Z,90.78
2022-12-25T02:26:01.190Z,90.46
2022-12-25T02:28:46.529Z,90.99
2022-12-25T02:31:18.315Z,91.26
2022-12-25T02:34:13.718Z,91.02
2022-12-25T02:36:51.735Z,90.83
2022-12-25T02:39:44.379Z,90.78
2022-12-25T02:42:58.064Z,91.22
2022-12-25T02:45:49.578Z,91.25
2022-12-25T02:53:19.713Z,91.18
2022-12-25T02:57:43.597Z,91.38
2022-12-25T02:59:48.695Z,91.03
2022-12-25T03:02:58.891Z,91.42
2022-12-25T03:06:40.982Z,90.72
2022-12-25T03:16:55.639Z,91.42
2022-12-25T03:24:08.909Z,91.14
2022-12-25T03:42:07.340Z,91.46
2022-12-25T03:44:14.438Z,91.40
2022-12-25T03:45:05.681Z,91.52
2022-12-25T03:48:02.967Z,91.37
2022-12-25T03:51:12.485Z,92.10
2022-12-25T03:54:07.082Z,91.88
2022-12-25T03:56:53.880Z,91.99
2022-12-25T03:59:41.211Z,91.64
2022-12-25T04:02:26.655Z,92.08
2022-12-25T04:05:11.798Z,91.50
2022-12-25T04:07:57.714Z,91.72
2022-12-25T04:10:42.867Z,92.11
2022-12-25T04:13:28.187Z,92.01
2022-12-25T04:16:13.526Z,92.26
2022-12-25T04:18:58.925Z,92.03
2022-12-25T04:21:44.172Z,91.97
2022-12-25T04:24:29.447Z,92.06
2022-12-25T04:27:15.299Z,92.40
2022-12-25T04:30:00.261Z,92.33
2022-12-25T04:32:45.432Z,92.57
2022-12-25T04:35:30.380Z,92.64
2022-12-25T04:37:57.018Z,92.54
2022-12-25T04:40:23.550Z,92.20
2022-12-25T04:42:51.368Z,92.21
2022-12-25T04:45:18.129Z,92.71
2022-12-25T04:47:44.566Z,92.52
2022-12-25T04:50:11.745Z,92.12
2022-12-25T04:52:40.443Z,91.93
2022-12-25T04:55:07.579Z,92.42
2022-12-25T04:57:34.286Z,92.06
2022-12-25T05:00:00.915Z,92.17
2022-12-25T05:02:27.496Z,92.60
2022-12-25T05:04:54.008Z,92.44
2022-12-25T05:07:20.421Z,92.44
2022-12-25T05:09:46.867Z,92.59
2022-12-25T05:12:13.590Z,92.72
2022-12-25T05:14:40.156Z,92.43
2022-12-25T05:17:07.893Z,92.82
2022-12-25T05:19:34.929Z,92.39
2022-12-25T05:22:01.609Z,92.57
2022-12-25T05:24:28.586Z,92.31
2022-12-25T05:26:55.047Z,92.38
2022-12-25T05:29:21.716Z,92.74
2022-12-25T05:31:48.190Z,92.68
2022-12-25T05:34:14.675Z,92.72
2022-12-25T05:36:41.120Z,92.75
2022-12-25T05:39:07.515Z,92.51
2022-12-25T05:41:34.735Z,93.07
2022-12-25T05:44:01.974Z,92.66
2022-12-25T05:46:28.426Z,92.78
2022-12-25T05:48:54.873Z,92.78
2022-12-25T05:51:21.358Z,92.82
2022-12-25T05:53:48.009Z,92.85
2022-12-25T05:56:14.417Z,92.67
2022-12-25T05:58:40.944Z,92.85
2022-12-25T06:01:19.869Z,93.04
2022-12-25T06:03:46.535Z,93.10
2022-12-25T06:06:13.526Z,92.90
2022-12-25T06:08:40.714Z,92.87
2022-12-25T06:11:08.442Z,93.17
2022-12-25T06:13:35.889Z,92.99
2022-12-25T06:16:07.076Z,92.81
2022-12-25T06:18:43.519Z,93.30
2022-12-25T06:23:46.013Z,92.94
2022-12-25T06:26:16.369Z,92.96
2022-12-25T06:28:43.643Z,92.98
2022-12-25T06:31:17.104Z,92.91
2022-12-25T06:36:18.143Z,93.28
2022-12-25T06:38:44.802Z,92.91
2022-12-25T06:41:15.371Z,93.38
2022-12-25T06:43:41.924Z,93.05
2022-12-25T06:46:11.760Z,93.08
2022-12-25T06:48:46.846Z,93.13
2022-12-25T06:51:13.811Z,93.35
2022-12-25T06:53:41.000Z,93.25
2022-12-25T06:56:16.259Z,93.08
2022-12-25T06:58:48.636Z,93.20
2022-12-25T07:01:20.768Z,93.07
2022-12-25T07:03:50.105Z,93.01
2022-12-25T07:06:16.664Z,93.39
2022-12-25T07:08:43.280Z,93.20
2022-12-25T07:11:09.831Z,93.38
2022-12-25T07:13:36.212Z,93.43
2022-12-25T07:16:04.638Z,93.25
2022-12-25T07:18:32.071Z,93.09
2022-12-25T07:21:01.387Z,93.50
2022-12-25T07:23:27.834Z,93.45
2022-12-25T07:25:58.357Z,93.21
2022-12-25T07:28:25.005Z,93.26
2022-12-25T07:30:52.156Z,93.52
2022-12-25T07:33:18.828Z,93.58
2022-12-25T07:35:45.293Z,93.40
2022-12-25T07:38:12.347Z,93.31
2022-12-25T07:40:38.969Z,93.41
2022-12-25T07:43:05.429Z,93.44
2022-12-25T07:45:31.931Z,93.28
2022-12-25T07:48:04.455Z,93.59
2022-12-25T07:50:31.898Z,93.53
2022-12-25T07:52:58.427Z,93.41
2022-12-25T07:55:24.972Z,93.31
2022-12-25T07:57:52.114Z,93.22
2022-12-25T08:00:19.174Z,93.57
2022-12-25T08:02:45.739Z,93.24
2022-12-25T08:05:12.434Z,93.42
2022-12-25T08:07:38.911Z,93.53
2022-12-25T08:10:06.138Z,93.85
2022-12-25T08:12:32.600Z,93.55
2022-12-25T08:14:59.005Z,93.38
2022-12-25T08:17:25.388Z,93.44
2022-12-25T08:19:51.859Z,93.60
2022-12-25T08:22:18.274Z,93.67
2022-12-25T08:24:44.954Z,93.52
2022-12-25T08:27:11.452Z,93.66
2022-12-25T08:29:37.902Z,93.65
2022-12-25T08:32:04.548Z,93.65
2022-12-25T08:34:30.977Z,93.63
2022-12-25T08:36:57.420Z,93.67
2022-12-25T08:39:24.608Z,93.64
2022-12-25T08:41:51.057Z,93.54
2022-12-25T08:44:17.586Z,93.59
2022-12-25T08:46:44.362Z,93.38
2022-12-25T08:49:10.890Z,93.42
2022-12-25T08:51:37.371Z,93.22
2022-12-25T08:54:04.029Z,93.35
2022-12-25T08:56:30.495Z,92.98
2022-12-25T08:58:57.198Z,93.49
2022-12-25T09:01:23.738Z,93.40
2022-12-25T09:03:50.365Z,93.43
2022-12-25T09:06:17.018Z,93.61
2022-12-25T09:08:49.314Z,93.61
2022-12-25T09:11:17.886Z,93.72
2022-12-25T09:13:44.485Z,93.65
2022-12-25T09:16:18.088Z,93.26
2022-12-25T09:18:44.849Z,93.81
2022-12-25T09:21:13.155Z,93.65
2022-12-25T09:23:40.274Z,93.59
2022-12-25T09:26:10.191Z,93.60
2022-12-25T09:28:36.954Z,93.47
2022-12-25T09:31:04.030Z,93.63
2022-12-25T09:33:30.552Z,93.36
2022-12-25T09:36:00.118Z,93.38
2022-12-25T09:38:28.274Z,93.22
2022-12-25T09:41:16.861Z,93.62
2022-12-25T09:44:07.224Z,93.63
2022-12-25T09:46:41.862Z,93.39
2022-12-25T09:49:32.969Z,93.51
2022-12-25T09:52:05.202Z,93.05
2022-12-25T09:54:46.577Z,92.71
2022-12-25T09:57:14.617Z,93.05
2022-12-25T09:59:44.247Z,92.70
2022-12-25T10:02:29.668Z,91.95
2022-12-25T10:05:50.560Z,92.53
2022-12-25T10:08:58.331Z,91.69
2022-12-25T10:11:39.971Z,92.27
2022-12-25T10:14:12.351Z,91.63
2022-12-25T10:17:08.406Z,91.80
2022-12-25T10:20:02.965Z,91.24
2022-12-25T10:22:38.073Z,91.58
2022-12-25T10:25:07.032Z,91.18
2022-12-25T10:27:42.751Z,90.79
2022-12-25T10:30:15.966Z,90.87
2022-12-25T10:32:44.144Z,90.89
2022-12-25T10:35:17.047Z,90.92
2022-12-25T10:37:46.451Z,91.26
2022-12-25T10:40:46.397Z,90.93
2022-12-25T11:15:55.109Z,90.11
2022-12-25T11:25:23.419Z,89.79
2022-12-25T11:28:51.964Z,90.49
2022-12-25T11:34:57.015Z,89.76
2022-12-25T11:37:41.887Z,89.74
2022-12-25T11:40:45.311Z,89.60
2022-12-25T11:43:43.978Z,89.08
2022-12-25T11:50:32.829Z,89.00
2022-12-25T11:55:49.980Z,87.84
2022-12-25T11:58:25.969Z,87.82
2022-12-25T12:01:01.659Z,87.53
2022-12-25T12:03:45.020Z,86.53
2022-12-25T12:06:59.950Z,86.52
2022-12-25T12:10:17.123Z,86.76
2022-12-25T12:13:03.756Z,86.80
2022-12-25T12:20:55.964Z,85.89
2022-12-25T12:24:48.916Z,85.92
2022-12-25T12:28:51.415Z,85.71
2022-12-25T12:32:26.081Z,86.37
2022-12-25T12:49:35.835Z,87.04
2022-12-25T12:52:24.263Z,87.35
2022-12-25T13:05:00.181Z,86.44
2022-12-25T13:19:10.137Z,86.25
2022-12-25T13:22:08.548Z,85.69
2022-12-25T13:24:45.094Z,86.03
2022-12-25T13:27:41.997Z,86.32
2022-12-25T13:30:22.306Z,86.43
2022-12-25T13:36:42.361Z,86.00
2022-12-25T13:39:32.887Z,86.05
2022-12-25T13:42:06.197Z,85.74
2022-12-25T13:45:02.287Z,85.69
2022-12-25T13:47:37.992Z,85.68
2022-12-25T13:50:23.351Z,85.58
2022-12-25T13:53:33.924Z,85.22
2022-12-25T13:59:37.248Z,85.88
2022-12-25T14:02:20.817Z,86.14
2022-12-25T14:05:42.702Z,85.79
2022-12-25T14:08:41.318Z,85.68
2022-12-25T14:11:09.235Z,86.42
2022-12-25T14:13:40.810Z,85.65
2022-12-25T14:16:41.109Z,85.94
2022-12-25T14:22:37.759Z,86.28
2022-12-25T14:25:49.412Z,86.11
2022-12-25T14:28:32.629Z,86.03
2022-12-25T14:31:07.977Z,85.76
2022-12-25T14:34:02.985Z,86.12
2022-12-25T14:36:38.239Z,85.78
2022-12-25T14:42:25.826Z,87.02
2022-12-25T14:45:08.121Z,86.31
2022-12-25T14:48:04.865Z,86.49
2022-12-25T14:50:46.249Z,86.76
2022-12-25T14:53:49.392Z,86.82
2022-12-25T14:56:59.639Z,87.26
2022-12-25T15:06:31.652Z,86.68
2022-12-25T15:06:36.311Z,86.35
2022-12-25T15:26:56.241Z,86.62
2022-12-25T15:46:15.697Z,86.26
2022-12-25T15:49:21.424Z,86.52
2022-12-25T15:52:12.627Z,86.46
2022-12-25T15:54:51.512Z,86.80
2022-12-25T15:57:36.241Z,86.67
2022-12-25T16:00:12.144Z,86.50
2022-12-25T16:24:33.033Z,85.32
2022-12-25T16:34:42.402Z,85.72
2022-12-25T16:45:02.324Z,85.43
2022-12-25T17:01:51.282Z,85.98
2022-12-25T17:04:45.769Z,85.63
2022-12-25T17:13:57.036Z,85.56
2022-12-25T17:17:27.954Z,85.31
2022-12-25T17:20:30.848Z,85.28
2022-12-25T17:32:13.824Z,85.28
2022-12-25T17:40:39.437Z,84.74
2022-12-25T17:42:59.953Z,85.41
2022-12-25T17:57:12.383Z,84.70
2022-12-25T18:00:15.811Z,84.63
2022-12-25T18:02:27.949Z,84.77
2022-12-25T18:03:21.958Z,84.77
2022-12-25T18:09:21.903Z,84.89
2022-12-25T18:15:23.958Z,84.94
2022-12-25T18:28:59.407Z,84.43
2022-12-25T18:32:10.104Z,84.43
2022-12-25T18:38:16.435Z,84.49
2022-12-25T18:41:36.882Z,84.86
2022-12-25T18:44:19.913Z,84.89
2022-12-25T18:47:08.951Z,84.37
2022-12-25T18:53:50.338Z,84.36
2022-12-25T18:57:10.180Z,84.35
2022-12-25T18:59:45.421Z,84.31
2022-12-25T19:02:57.568Z,84.33
2022-12-25T19:06:15.696Z,84.13
2022-12-25T19:12:48.158Z,83.64
2022-12-25T19:15:33.290Z,84.03
2022-12-25T19:18:32.475Z,83.58
2022-12-25T19:21:37.819Z,84.24
2022-12-25T19:24:20.616Z,83.39
2022-12-25T19:34:46.001Z,83.25
2022-12-25T19:38:09.564Z,83.55
2022-12-25T19:47:07.222Z,83.79
2022-12-25T19:56:54.088Z,83.22
2022-12-25T20:08:11.196Z,84.03
2022-12-25T20:18:39.612Z,83.15
2022-12-25T20:44:19.697Z,82.92
2022-12-25T20:45:52.843Z,83.88
2022-12-25T20:50:10.895Z,83.40
2022-12-25T20:54:11.889Z,83.70
2022-12-25T20:57:21.404Z,83.39
2022-12-25T21:11:39.226Z,82.90
2022-12-25T21:20:29.352Z,83.17
2022-12-25T21:20:52.542Z,82.92
2022-12-25T21:22:55.779Z,83.51
2022-12-25T21:25:22.259Z,82.40
2022-12-25T21:27:48.748Z,83.18
2022-12-25T21:30:16.090Z,82.19
2022-12-25T21:33:01.021Z,82.49
2022-12-25T21:35:27.531Z,82.25
2022-12-25T21:37:54.138Z,82.58
2022-12-25T21:40:20.542Z,82.08
2022-12-25T21:42:46.918Z,82.22
2022-12-25T21:45:13.324Z,81.72
2022-12-25T21:48:02.347Z,81.73
2022-12-25T21:50:44.564Z,82.21
2022-12-25T21:53:18.541Z,81.58
2022-12-25T21:55:58.755Z,81.77
2022-12-25T21:58:25.272Z,80.94
2022-12-25T22:00:52.004Z,81.31
2022-12-25T22:03:18.622Z,80.95
2022-12-25T22:06:03.793Z,81.47
2022-12-25T22:08:34.883Z,81.10
2022-12-25T22:11:04.574Z,81.50
2022-12-25T22:13:49.586Z,80.88
2022-12-25T22:16:34.640Z,80.62
2022-12-25T22:19:19.452Z,81.05
2022-12-25T22:21:55.381Z,80.48
2022-12-25T22:25:45.568Z,80.64
2022-12-25T22:28:06.097Z,80.24
2022-12-25T22:34:22.813Z,80.34
2022-12-25T22:37:15.551Z,80.03
2022-12-25T22:44:24.480Z,79.50
2022-12-25T22:47:01.266Z,79.66
2022-12-25T22:49:41.159Z,79.68
2022-12-25T22:52:43.868Z,79.89
2022-12-25T22:58:27.743Z,79.53
2022-12-25T23:14:38.297Z,79.76
2022-12-25T23:21:05.853Z,79.82
2022-12-25T23:23:50.838Z,80.02
2022-12-25T23:26:20.367Z,80.30
2022-12-25T23:29:05.441Z,79.67
2022-12-25T23:31:35.585Z,80.44
2022-12-25T23:34:03.780Z,80.11
2022-12-25T23:36:30.160Z,79.72
2022-12-25T23:38:58.271Z,80.58
2022-12-25T23:41:27.627Z,80.78
2022-12-25T23:43:54.010Z,80.06
2022-12-25T23:46:20.520Z,80.86
2022-12-25T23:48:47.590Z,80.76
2022-12-25T23:51:13.945Z,80.81
2022-12-25T23:53:40.453Z,80.57
2022-12-25T23:56:07.011Z,80.93
2022-12-25T23:58:33.452Z,80.32
